sensor_id;sensor_type;location;lat;lon;timestamp;P1;durP1;ratioP1;P2;durP2;ratioP2
70414;SDS011;57837;52.064;113.478;2023-07-16T00:00:20;11.40;;;7.78;;
70414;SDS011;57837;52.064;113.478;2023-07-16T00:03:27;14.63;;;8.35;;
70414;SDS011;57837;52.064;113.478;2023-07-16T00:06:31;12.95;;;8.20;;
70414;SDS011;57837;52.064;113.478;2023-07-16T00:09:35;16.40;;;8.07;;
70414;SDS011;57837;52.064;113.478;2023-07-16T00:12:39;13.35;;;7.60;;
70414;SDS011;57837;52.064;113.478;2023-07-16T00:15:43;13.50;;;8.35;;
70414;SDS011;57837;52.064;113.478;2023-07-16T00:18:47;11.35;;;8.15;;
70414;SDS011;57837;52.064;113.478;2023-07-16T00:21:50;18.77;;;9.07;;
70414;SDS011;57837;52.064;113.478;2023-07-16T00:24:53;14.90;;;8.33;;
70414;SDS011;57837;52.064;113.478;2023-07-16T00:27:57;14.23;;;7.85;;
70414;SDS011;57837;52.064;113.478;2023-07-16T00:31:01;15.02;;;7.93;;
70414;SDS011;57837;52.064;113.478;2023-07-16T00:34:05;14.85;;;7.68;;
70414;SDS011;57837;52.064;113.478;2023-07-16T00:37:09;12.73;;;8.60;;
70414;SDS011;57837;52.064;113.478;2023-07-16T00:40:14;11.63;;;7.63;;
70414;SDS011;57837;52.064;113.478;2023-07-16T00:43:18;13.77;;;8.05;;
70414;SDS011;57837;52.064;113.478;2023-07-16T00:46:22;16.20;;;7.80;;
70414;SDS011;57837;52.064;113.478;2023-07-16T00:49:27;13.10;;;7.05;;
70414;SDS011;57837;52.064;113.478;2023-07-16T00:52:32;11.63;;;7.28;;
70414;SDS011;57837;52.064;113.478;2023-07-16T00:55:35;13.00;;;7.43;;
70414;SDS011;57837;52.064;113.478;2023-07-16T00:58:40;12.27;;;6.63;;
70414;SDS011;57837;52.064;113.478;2023-07-16T01:01:43;10.73;;;6.80;;
70414;SDS011;57837;52.064;113.478;2023-07-16T01:04:48;10.18;;;6.18;;
70414;SDS011;57837;52.064;113.478;2023-07-16T01:07:53;7.82;;;6.20;;
70414;SDS011;57837;52.064;113.478;2023-07-16T01:11:02;14.00;;;6.30;;
70414;SDS011;57837;52.064;113.478;2023-07-16T01:14:08;7.75;;;6.10;;
70414;SDS011;57837;52.064;113.478;2023-07-16T01:17:13;11.75;;;6.25;;
70414;SDS011;57837;52.064;113.478;2023-07-16T01:20:17;10.60;;;6.55;;
70414;SDS011;57837;52.064;113.478;2023-07-16T01:30:29;8.57;;;6.57;;
70414;SDS011;57837;52.064;113.478;2023-07-16T01:33:34;10.82;;;6.03;;
70414;SDS011;57837;52.064;113.478;2023-07-16T01:36:38;15.02;;;6.22;;
70414;SDS011;57837;52.064;113.478;2023-07-16T01:39:42;12.75;;;7.07;;
70414;SDS011;57837;52.064;113.478;2023-07-16T01:42:46;10.40;;;6.23;;
70414;SDS011;57837;52.064;113.478;2023-07-16T01:45:49;12.45;;;6.97;;
70414;SDS011;57837;52.064;113.478;2023-07-16T01:48:54;9.52;;;6.97;;
70414;SDS011;57837;52.064;113.478;2023-07-16T01:51:59;12.18;;;6.68;;
70414;SDS011;57837;52.064;113.478;2023-07-16T01:55:04;12.07;;;6.78;;
70414;SDS011;57837;52.064;113.478;2023-07-16T01:58:08;10.70;;;7.10;;
70414;SDS011;57837;52.064;113.478;2023-07-16T02:01:13;10.98;;;7.20;;
70414;SDS011;57837;52.064;113.478;2023-07-16T02:04:16;9.60;;;6.43;;
70414;SDS011;57837;52.064;113.478;2023-07-16T02:07:20;12.90;;;7.18;;
70414;SDS011;57837;52.064;113.478;2023-07-16T02:10:23;10.68;;;7.35;;
70414;SDS011;57837;52.064;113.478;2023-07-16T02:13:27;12.93;;;7.60;;
70414;SDS011;57837;52.064;113.478;2023-07-16T02:16:30;11.77;;;7.85;;
70414;SDS011;57837;52.064;113.478;2023-07-16T02:19:34;13.45;;;7.50;;
70414;SDS011;57837;52.064;113.478;2023-07-16T02:22:38;16.38;;;7.85;;
70414;SDS011;57837;52.064;113.478;2023-07-16T02:25:43;12.07;;;7.72;;
70414;SDS011;57837;52.064;113.478;2023-07-16T02:28:46;11.27;;;7.30;;
70414;SDS011;57837;52.064;113.478;2023-07-16T02:31:50;12.00;;;6.95;;
70414;SDS011;57837;52.064;113.478;2023-07-16T02:34:53;13.38;;;7.63;;
70414;SDS011;57837;52.064;113.478;2023-07-16T02:37:57;11.40;;;7.30;;
70414;SDS011;57837;52.064;113.478;2023-07-16T02:41:01;12.77;;;6.88;;
70414;SDS011;57837;52.064;113.478;2023-07-16T02:44:07;11.57;;;7.43;;
70414;SDS011;57837;52.064;113.478;2023-07-16T02:47:12;13.77;;;7.82;;
70414;SDS011;57837;52.064;113.478;2023-07-16T02:50:16;14.95;;;8.32;;
70414;SDS011;57837;52.064;113.478;2023-07-16T02:53:20;16.88;;;7.50;;
70414;SDS011;57837;52.064;113.478;2023-07-16T02:56:24;13.65;;;7.97;;
70414;SDS011;57837;52.064;113.478;2023-07-16T02:59:28;15.23;;;7.97;;
70414;SDS011;57837;52.064;113.478;2023-07-16T03:02:32;14.82;;;7.70;;
70414;SDS011;57837;52.064;113.478;2023-07-16T03:05:36;19.95;;;7.45;;
70414;SDS011;57837;52.064;113.478;2023-07-16T03:08:39;22.60;;;8.18;;
70414;SDS011;57837;52.064;113.478;2023-07-16T03:11:43;17.05;;;7.38;;
70414;SDS011;57837;52.064;113.478;2023-07-16T03:14:46;9.80;;;6.47;;
70414;SDS011;57837;52.064;113.478;2023-07-16T03:17:49;15.00;;;7.18;;
70414;SDS011;57837;52.064;113.478;2023-07-16T03:20:54;22.95;;;9.25;;
70414;SDS011;57837;52.064;113.478;2023-07-16T03:23:57;19.40;;;7.65;;
70414;SDS011;57837;52.064;113.478;2023-07-16T03:27:01;12.07;;;7.10;;
70414;SDS011;57837;52.064;113.478;2023-07-16T03:30:20;11.63;;;6.80;;
70414;SDS011;57837;52.064;113.478;2023-07-16T03:33:23;15.40;;;6.90;;
70414;SDS011;57837;52.064;113.478;2023-07-16T03:36:27;9.50;;;6.80;;
70414;SDS011;57837;52.064;113.478;2023-07-16T03:39:31;12.65;;;7.57;;
70414;SDS011;57837;52.064;113.478;2023-07-16T03:42:36;11.77;;;7.07;;
70414;SDS011;57837;52.064;113.478;2023-07-16T03:45:40;12.60;;;8.10;;
70414;SDS011;57837;52.064;113.478;2023-07-16T03:48:43;11.30;;;7.40;;
70414;SDS011;57837;52.064;113.478;2023-07-16T03:51:48;19.83;;;7.80;;
70414;SDS011;57837;52.064;113.478;2023-07-16T03:54:52;15.60;;;7.53;;
70414;SDS011;57837;52.064;113.478;2023-07-16T03:57:55;14.57;;;7.97;;
70414;SDS011;57837;52.064;113.478;2023-07-16T04:01:00;18.17;;;7.80;;
70414;SDS011;57837;52.064;113.478;2023-07-16T04:04:04;12.88;;;7.55;;
70414;SDS011;57837;52.064;113.478;2023-07-16T04:07:08;10.85;;;7.13;;
70414;SDS011;57837;52.064;113.478;2023-07-16T04:10:12;16.83;;;7.30;;
70414;SDS011;57837;52.064;113.478;2023-07-16T04:13:15;11.38;;;6.97;;
70414;SDS011;57837;52.064;113.478;2023-07-16T04:16:19;14.00;;;6.87;;
70414;SDS011;57837;52.064;113.478;2023-07-16T04:19:23;18.60;;;8.48;;
70414;SDS011;57837;52.064;113.478;2023-07-16T04:22:27;12.65;;;8.30;;
70414;SDS011;57837;52.064;113.478;2023-07-16T04:25:30;17.52;;;8.10;;
70414;SDS011;57837;52.064;113.478;2023-07-16T04:28:34;15.30;;;8.02;;
70414;SDS011;57837;52.064;113.478;2023-07-16T04:31:37;17.93;;;8.47;;
70414;SDS011;57837;52.064;113.478;2023-07-16T04:34:41;12.75;;;7.53;;
70414;SDS011;57837;52.064;113.478;2023-07-16T04:37:44;10.82;;;7.63;;
70414;SDS011;57837;52.064;113.478;2023-07-16T04:40:48;12.57;;;7.72;;
70414;SDS011;57837;52.064;113.478;2023-07-16T04:43:51;14.00;;;7.75;;
70414;SDS011;57837;52.064;113.478;2023-07-16T04:46:55;10.77;;;7.27;;
70414;SDS011;57837;52.064;113.478;2023-07-16T04:49:59;10.25;;;6.82;;
70414;SDS011;57837;52.064;113.478;2023-07-16T04:53:03;9.48;;;7.28;;
70414;SDS011;57837;52.064;113.478;2023-07-16T04:56:13;14.27;;;7.18;;
70414;SDS011;57837;52.064;113.478;2023-07-16T04:59:18;11.70;;;7.72;;
70414;SDS011;57837;52.064;113.478;2023-07-16T05:02:21;11.27;;;7.37;;
70414;SDS011;57837;52.064;113.478;2023-07-16T05:05:24;11.30;;;7.47;;
70414;SDS011;57837;52.064;113.478;2023-07-16T05:08:28;13.68;;;7.13;;
70414;SDS011;57837;52.064;113.478;2023-07-16T05:11:32;11.68;;;6.78;;
70414;SDS011;57837;52.064;113.478;2023-07-16T05:14:43;19.95;;;7.10;;
70414;SDS011;57837;52.064;113.478;2023-07-16T05:17:50;19.23;;;7.53;;
70414;SDS011;57837;52.064;113.478;2023-07-16T05:20:53;9.02;;;7.20;;
70414;SDS011;57837;52.064;113.478;2023-07-16T05:23:56;12.32;;;7.20;;
70414;SDS011;57837;52.064;113.478;2023-07-16T05:27:00;12.05;;;7.18;;
70414;SDS011;57837;52.064;113.478;2023-07-16T05:30:04;10.27;;;7.20;;
70414;SDS011;57837;52.064;113.478;2023-07-16T05:33:09;11.87;;;6.83;;
70414;SDS011;57837;52.064;113.478;2023-07-16T05:36:16;8.88;;;7.00;;
70414;SDS011;57837;52.064;113.478;2023-07-16T05:39:21;10.23;;;6.30;;
70414;SDS011;57837;52.064;113.478;2023-07-16T05:42:25;13.00;;;6.25;;
70414;SDS011;57837;52.064;113.478;2023-07-16T05:45:30;9.68;;;6.38;;
70414;SDS011;57837;52.064;113.478;2023-07-16T05:48:34;9.93;;;5.90;;
70414;SDS011;57837;52.064;113.478;2023-07-16T05:51:37;10.38;;;7.22;;
70414;SDS011;57837;52.064;113.478;2023-07-16T05:54:42;11.55;;;7.25;;
70414;SDS011;57837;52.064;113.478;2023-07-16T05:57:48;9.32;;;6.13;;
70414;SDS011;57837;52.064;113.478;2023-07-16T06:00:51;13.02;;;7.85;;
70414;SDS011;57837;52.064;113.478;2023-07-16T06:03:54;8.80;;;5.60;;
70414;SDS011;57837;52.064;113.478;2023-07-16T06:06:58;7.15;;;5.50;;
70414;SDS011;57837;52.064;113.478;2023-07-16T06:10:01;9.00;;;6.10;;
70414;SDS011;57837;52.064;113.478;2023-07-16T06:13:04;11.18;;;8.05;;
70414;SDS011;57837;52.064;113.478;2023-07-16T06:16:08;14.70;;;7.22;;
70414;SDS011;57837;52.064;113.478;2023-07-16T06:19:11;10.03;;;6.43;;
70414;SDS011;57837;52.064;113.478;2023-07-16T06:22:15;9.88;;;6.47;;
70414;SDS011;57837;52.064;113.478;2023-07-16T06:25:18;9.75;;;6.20;;
70414;SDS011;57837;52.064;113.478;2023-07-16T06:28:22;19.25;;;6.68;;
70414;SDS011;57837;52.064;113.478;2023-07-16T06:31:26;12.85;;;6.45;;
70414;SDS011;57837;52.064;113.478;2023-07-16T06:34:30;9.43;;;6.33;;
70414;SDS011;57837;52.064;113.478;2023-07-16T06:37:33;15.30;;;5.95;;
70414;SDS011;57837;52.064;113.478;2023-07-16T06:40:36;13.68;;;5.38;;
70414;SDS011;57837;52.064;113.478;2023-07-16T06:43:39;9.70;;;4.20;;
70414;SDS011;57837;52.064;113.478;2023-07-16T06:46:43;7.10;;;4.05;;
70414;SDS011;57837;52.064;113.478;2023-07-16T06:49:48;6.17;;;4.10;;
70414;SDS011;57837;52.064;113.478;2023-07-16T06:52:52;6.97;;;4.07;;
70414;SDS011;57837;52.064;113.478;2023-07-16T06:55:56;9.02;;;4.75;;
70414;SDS011;57837;52.064;113.478;2023-07-16T06:58:59;7.20;;;4.97;;
70414;SDS011;57837;52.064;113.478;2023-07-16T07:02:03;12.85;;;6.10;;
70414;SDS011;57837;52.064;113.478;2023-07-16T07:05:07;8.43;;;4.30;;
70414;SDS011;57837;52.064;113.478;2023-07-16T07:08:11;10.65;;;3.50;;
70414;SDS011;57837;52.064;113.478;2023-07-16T07:11:15;4.30;;;3.08;;
70414;SDS011;57837;52.064;113.478;2023-07-16T07:14:18;3.97;;;3.35;;
70414;SDS011;57837;52.064;113.478;2023-07-16T07:17:22;10.95;;;3.80;;
70414;SDS011;57837;52.064;113.478;2023-07-16T07:20:26;4.13;;;3.20;;
70414;SDS011;57837;52.064;113.478;2023-07-16T07:23:30;5.35;;;2.85;;
70414;SDS011;57837;52.064;113.478;2023-07-16T07:26:33;4.53;;;3.53;;
70414;SDS011;57837;52.064;113.478;2023-07-16T07:29:37;4.93;;;3.58;;
70414;SDS011;57837;52.064;113.478;2023-07-16T07:32:41;6.35;;;4.10;;
70414;SDS011;57837;52.064;113.478;2023-07-16T07:35:45;8.87;;;4.40;;
70414;SDS011;57837;52.064;113.478;2023-07-16T07:38:49;7.63;;;4.78;;
70414;SDS011;57837;52.064;113.478;2023-07-16T07:41:53;6.35;;;4.40;;
70414;SDS011;57837;52.064;113.478;2023-07-16T07:44:56;7.80;;;4.93;;
70414;SDS011;57837;52.064;113.478;2023-07-16T07:48:00;8.52;;;4.97;;
70414;SDS011;57837;52.064;113.478;2023-07-16T07:51:04;11.27;;;5.30;;
70414;SDS011;57837;52.064;113.478;2023-07-16T07:54:08;7.60;;;5.30;;
70414;SDS011;57837;52.064;113.478;2023-07-16T07:57:13;9.65;;;4.88;;
70414;SDS011;57837;52.064;113.478;2023-07-16T08:00:19;7.60;;;4.90;;
70414;SDS011;57837;52.064;113.478;2023-07-16T08:03:23;9.15;;;4.78;;
70414;SDS011;57837;52.064;113.478;2023-07-16T08:06:28;6.97;;;4.57;;
70414;SDS011;57837;52.064;113.478;2023-07-16T08:09:32;6.72;;;4.30;;
70414;SDS011;57837;52.064;113.478;2023-07-16T08:12:36;7.00;;;4.78;;
70414;SDS011;57837;52.064;113.478;2023-07-16T08:15:40;10.00;;;4.75;;
70414;SDS011;57837;52.064;113.478;2023-07-16T08:18:44;5.70;;;4.45;;
70414;SDS011;57837;52.064;113.478;2023-07-16T08:21:48;10.27;;;5.67;;
70414;SDS011;57837;52.064;113.478;2023-07-16T08:24:52;7.25;;;4.22;;
70414;SDS011;57837;52.064;113.478;2023-07-16T08:27:56;6.82;;;4.50;;
70414;SDS011;57837;52.064;113.478;2023-07-16T08:31:00;9.38;;;4.47;;
70414;SDS011;57837;52.064;113.478;2023-07-16T08:34:04;7.57;;;4.63;;
70414;SDS011;57837;52.064;113.478;2023-07-16T08:37:07;6.80;;;4.67;;
70414;SDS011;57837;52.064;113.478;2023-07-16T08:40:12;7.75;;;5.00;;
70414;SDS011;57837;52.064;113.478;2023-07-16T08:43:16;9.80;;;4.70;;
70414;SDS011;57837;52.064;113.478;2023-07-16T08:46:22;8.65;;;5.30;;
70414;SDS011;57837;52.064;113.478;2023-07-16T08:49:26;10.40;;;4.72;;
70414;SDS011;57837;52.064;113.478;2023-07-16T08:52:34;6.50;;;5.43;;
70414;SDS011;57837;52.064;113.478;2023-07-16T08:55:37;7.15;;;5.60;;
70414;SDS011;57837;52.064;113.478;2023-07-16T08:58:42;8.25;;;4.80;;
70414;SDS011;57837;52.064;113.478;2023-07-16T09:01:48;9.02;;;5.18;;
70414;SDS011;57837;52.064;113.478;2023-07-16T09:04:52;8.45;;;5.32;;
70414;SDS011;57837;52.064;113.478;2023-07-16T09:07:58;9.87;;;5.07;;
70414;SDS011;57837;52.064;113.478;2023-07-16T09:11:02;7.70;;;4.57;;
70414;SDS011;57837;52.064;113.478;2023-07-16T09:14:05;5.60;;;4.45;;
70414;SDS011;57837;52.064;113.478;2023-07-16T09:17:09;5.28;;;4.35;;
70414;SDS011;57837;52.064;113.478;2023-07-16T09:20:14;5.20;;;4.40;;
70414;SDS011;57837;52.064;113.478;2023-07-16T09:23:19;8.77;;;4.87;;
70414;SDS011;57837;52.064;113.478;2023-07-16T09:26:23;7.75;;;4.60;;
70414;SDS011;57837;52.064;113.478;2023-07-16T09:29:27;15.32;;;5.45;;
70414;SDS011;57837;52.064;113.478;2023-07-16T09:32:34;5.20;;;4.70;;
70414;SDS011;57837;52.064;113.478;2023-07-16T09:35:42;8.70;;;5.63;;
70414;SDS011;57837;52.064;113.478;2023-07-16T09:38:46;8.30;;;5.57;;
70414;SDS011;57837;52.064;113.478;2023-07-16T09:41:49;9.85;;;6.07;;
70414;SDS011;57837;52.064;113.478;2023-07-16T09:44:53;11.05;;;6.15;;
70414;SDS011;57837;52.064;113.478;2023-07-16T09:47:58;7.65;;;4.85;;
70414;SDS011;57837;52.064;113.478;2023-07-16T09:51:01;10.57;;;5.85;;
70414;SDS011;57837;52.064;113.478;2023-07-16T09:54:06;8.53;;;5.97;;
70414;SDS011;57837;52.064;113.478;2023-07-16T09:57:09;11.52;;;5.30;;
70414;SDS011;57837;52.064;113.478;2023-07-16T10:00:13;10.65;;;4.90;;
70414;SDS011;57837;52.064;113.478;2023-07-16T10:03:20;6.72;;;4.50;;
70414;SDS011;57837;52.064;113.478;2023-07-16T10:06:24;35.90;;;6.68;;
70414;SDS011;57837;52.064;113.478;2023-07-16T10:12:58;10.43;;;5.03;;
70414;SDS011;57837;52.064;113.478;2023-07-16T10:16:05;7.28;;;4.85;;
70414;SDS011;57837;52.064;113.478;2023-07-16T10:19:09;9.98;;;5.18;;
70414;SDS011;57837;52.064;113.478;2023-07-16T10:22:12;11.20;;;5.18;;
70414;SDS011;57837;52.064;113.478;2023-07-16T10:28:23;11.50;;;6.10;;
70414;SDS011;57837;52.064;113.478;2023-07-16T10:31:27;10.35;;;6.40;;
70414;SDS011;57837;52.064;113.478;2023-07-16T10:34:30;16.70;;;6.43;;
70414;SDS011;57837;52.064;113.478;2023-07-16T10:37:33;14.43;;;6.75;;
70414;SDS011;57837;52.064;113.478;2023-07-16T10:40:41;15.73;;;5.97;;
70414;SDS011;57837;52.064;113.478;2023-07-16T10:43:46;19.58;;;6.05;;
70414;SDS011;57837;52.064;113.478;2023-07-16T10:46:49;11.32;;;5.60;;
70414;SDS011;57837;52.064;113.478;2023-07-16T10:49:54;11.60;;;5.00;;
70414;SDS011;57837;52.064;113.478;2023-07-16T10:52:58;20.25;;;5.60;;
70414;SDS011;57837;52.064;113.478;2023-07-16T10:56:01;21.23;;;5.20;;
70414;SDS011;57837;52.064;113.478;2023-07-16T10:59:09;10.35;;;5.15;;
70414;SDS011;57837;52.064;113.478;2023-07-16T11:02:14;11.70;;;5.43;;
70414;SDS011;57837;52.064;113.478;2023-07-16T11:05:19;8.90;;;5.30;;
70414;SDS011;57837;52.064;113.478;2023-07-16T11:08:23;17.55;;;5.75;;
70414;SDS011;57837;52.064;113.478;2023-07-16T11:11:29;18.53;;;5.93;;
70414;SDS011;57837;52.064;113.478;2023-07-16T11:14:33;14.38;;;6.75;;
70414;SDS011;57837;52.064;113.478;2023-07-16T11:17:38;9.25;;;6.00;;
70414;SDS011;57837;52.064;113.478;2023-07-16T11:20:43;14.25;;;6.65;;
70414;SDS011;57837;52.064;113.478;2023-07-16T11:23:46;16.45;;;5.60;;
70414;SDS011;57837;52.064;113.478;2023-07-16T11:26:51;8.97;;;5.67;;
70414;SDS011;57837;52.064;113.478;2023-07-16T11:29:55;17.02;;;6.10;;
70414;SDS011;57837;52.064;113.478;2023-07-16T11:33:01;14.15;;;6.38;;
70414;SDS011;57837;52.064;113.478;2023-07-16T11:36:05;14.18;;;6.28;;
70414;SDS011;57837;52.064;113.478;2023-07-16T11:39:10;12.25;;;5.97;;
70414;SDS011;57837;52.064;113.478;2023-07-16T11:42:17;11.87;;;6.13;;
70414;SDS011;57837;52.064;113.478;2023-07-16T11:45:27;16.33;;;7.13;;
70414;SDS011;57837;52.064;113.478;2023-07-16T11:48:31;11.82;;;6.90;;
70414;SDS011;57837;52.064;113.478;2023-07-16T11:51:35;14.02;;;7.13;;
70414;SDS011;57837;52.064;113.478;2023-07-16T11:54:38;13.77;;;7.05;;
70414;SDS011;57837;52.064;113.478;2023-07-16T11:57:42;15.90;;;6.73;;
70414;SDS011;57837;52.064;113.478;2023-07-16T12:00:46;18.33;;;6.90;;
70414;SDS011;57837;52.064;113.478;2023-07-16T12:03:50;21.08;;;7.50;;
70414;SDS011;57837;52.064;113.478;2023-07-16T12:06:54;28.95;;;8.18;;
70414;SDS011;57837;52.064;113.478;2023-07-16T12:09:58;27.92;;;8.18;;
70414;SDS011;57837;52.064;113.478;2023-07-16T12:13:02;28.83;;;8.00;;
70414;SDS011;57837;52.064;113.478;2023-07-16T12:16:06;29.60;;;8.00;;
70414;SDS011;57837;52.064;113.478;2023-07-16T12:19:10;30.23;;;7.80;;
70414;SDS011;57837;52.064;113.478;2023-07-16T12:22:14;26.75;;;9.50;;
70414;SDS011;57837;52.064;113.478;2023-07-16T12:25:20;35.28;;;10.13;;
70414;SDS011;57837;52.064;113.478;2023-07-16T12:28:24;30.90;;;9.60;;
70414;SDS011;57837;52.064;113.478;2023-07-16T12:31:29;29.77;;;10.38;;
70414;SDS011;57837;52.064;113.478;2023-07-16T12:34:34;31.52;;;10.13;;
70414;SDS011;57837;52.064;113.478;2023-07-16T12:37:39;29.23;;;10.93;;
70414;SDS011;57837;52.064;113.478;2023-07-16T12:40:42;32.65;;;12.63;;
70414;SDS011;57837;52.064;113.478;2023-07-16T12:43:46;31.67;;;13.93;;
70414;SDS011;57837;52.064;113.478;2023-07-16T12:46:49;41.50;;;15.13;;
70414;SDS011;57837;52.064;113.478;2023-07-16T12:49:54;31.20;;;11.35;;
70414;SDS011;57837;52.064;113.478;2023-07-16T12:52:57;30.23;;;12.10;;
70414;SDS011;57837;52.064;113.478;2023-07-16T12:56:00;19.38;;;9.20;;
70414;SDS011;57837;52.064;113.478;2023-07-16T12:59:04;29.60;;;12.47;;
70414;SDS011;57837;52.064;113.478;2023-07-16T13:02:07;29.08;;;11.15;;
70414;SDS011;57837;52.064;113.478;2023-07-16T13:05:11;26.30;;;11.68;;
70414;SDS011;57837;52.064;113.478;2023-07-16T13:08:15;23.27;;;13.40;;
70414;SDS011;57837;52.064;113.478;2023-07-16T13:11:18;36.92;;;13.55;;
70414;SDS011;57837;52.064;113.478;2023-07-16T13:14:22;27.70;;;13.73;;
70414;SDS011;57837;52.064;113.478;2023-07-16T13:17:25;25.70;;;11.40;;
70414;SDS011;57837;52.064;113.478;2023-07-16T13:20:29;39.15;;;12.52;;
70414;SDS011;57837;52.064;113.478;2023-07-16T13:23:32;58.00;;;11.60;;
70414;SDS011;57837;52.064;113.478;2023-07-16T13:26:37;27.67;;;10.48;;
70414;SDS011;57837;52.064;113.478;2023-07-16T13:29:40;31.97;;;10.83;;
70414;SDS011;57837;52.064;113.478;2023-07-16T13:32:45;29.10;;;10.93;;
70414;SDS011;57837;52.064;113.478;2023-07-16T13:35:49;27.30;;;8.80;;
70414;SDS011;57837;52.064;113.478;2023-07-16T13:38:53;22.33;;;9.55;;
70414;SDS011;57837;52.064;113.478;2023-07-16T13:41:57;19.35;;;8.77;;
70414;SDS011;57837;52.064;113.478;2023-07-16T13:45:20;18.40;;;7.60;;
70414;SDS011;57837;52.064;113.478;2023-07-16T13:48:24;14.30;;;7.75;;
70414;SDS011;57837;52.064;113.478;2023-07-16T13:51:28;20.38;;;8.20;;
70414;SDS011;57837;52.064;113.478;2023-07-16T13:54:31;15.27;;;7.47;;
70414;SDS011;57837;52.064;113.478;2023-07-16T13:57:36;15.83;;;8.10;;
70414;SDS011;57837;52.064;113.478;2023-07-16T14:00:39;16.10;;;8.50;;
70414;SDS011;57837;52.064;113.478;2023-07-16T14:03:43;21.80;;;9.18;;
70414;SDS011;57837;52.064;113.478;2023-07-16T14:06:47;19.85;;;8.65;;
70414;SDS011;57837;52.064;113.478;2023-07-16T14:09:51;17.38;;;8.82;;
70414;SDS011;57837;52.064;113.478;2023-07-16T14:12:55;19.45;;;8.52;;
70414;SDS011;57837;52.064;113.478;2023-07-16T14:15:59;22.83;;;9.60;;
70414;SDS011;57837;52.064;113.478;2023-07-16T14:19:03;34.83;;;15.57;;
70414;SDS011;57837;52.064;113.478;2023-07-16T14:22:07;38.13;;;15.43;;
70414;SDS011;57837;52.064;113.478;2023-07-16T14:25:14;37.85;;;16.85;;
70414;SDS011;57837;52.064;113.478;2023-07-16T14:28:19;25.77;;;13.90;;
70414;SDS011;57837;52.064;113.478;2023-07-16T14:31:22;40.67;;;16.87;;
70414;SDS011;57837;52.064;113.478;2023-07-16T14:34:26;31.98;;;16.17;;
70414;SDS011;57837;52.064;113.478;2023-07-16T14:37:29;29.88;;;16.30;;
70414;SDS011;57837;52.064;113.478;2023-07-16T14:40:33;27.00;;;14.50;;
70414;SDS011;57837;52.064;113.478;2023-07-16T14:43:37;21.53;;;12.33;;
70414;SDS011;57837;52.064;113.478;2023-07-16T14:46:41;19.57;;;11.43;;
70414;SDS011;57837;52.064;113.478;2023-07-16T14:49:44;18.20;;;10.93;;
70414;SDS011;57837;52.064;113.478;2023-07-16T14:52:47;23.20;;;12.13;;
70414;SDS011;57837;52.064;113.478;2023-07-16T14:55:50;15.88;;;11.18;;
70414;SDS011;57837;52.064;113.478;2023-07-16T14:58:55;18.07;;;11.13;;
70414;SDS011;57837;52.064;113.478;2023-07-16T15:01:58;19.10;;;11.63;;
70414;SDS011;57837;52.064;113.478;2023-07-16T15:05:01;15.18;;;10.88;;
70414;SDS011;57837;52.064;113.478;2023-07-16T15:08:05;23.35;;;10.02;;
70414;SDS011;57837;52.064;113.478;2023-07-16T15:11:08;17.45;;;10.85;;
70414;SDS011;57837;52.064;113.478;2023-07-16T15:14:12;18.20;;;10.67;;
70414;SDS011;57837;52.064;113.478;2023-07-16T15:17:17;24.60;;;11.90;;
70414;SDS011;57837;52.064;113.478;2023-07-16T15:20:21;20.50;;;10.50;;
70414;SDS011;57837;52.064;113.478;2023-07-16T15:23:26;20.20;;;10.30;;
70414;SDS011;57837;52.064;113.478;2023-07-16T15:26:30;18.60;;;10.48;;
70414;SDS011;57837;52.064;113.478;2023-07-16T15:29:35;23.13;;;11.07;;
70414;SDS011;57837;52.064;113.478;2023-07-16T15:32:38;15.70;;;11.30;;
70414;SDS011;57837;52.064;113.478;2023-07-16T15:35:42;18.83;;;9.65;;
70414;SDS011;57837;52.064;113.478;2023-07-16T15:38:46;15.15;;;8.50;;
70414;SDS011;57837;52.064;113.478;2023-07-16T15:41:49;19.75;;;8.63;;
70414;SDS011;57837;52.064;113.478;2023-07-16T15:44:52;16.35;;;8.15;;
70414;SDS011;57837;52.064;113.478;2023-07-16T15:47:55;28.53;;;14.07;;
70414;SDS011;57837;52.064;113.478;2023-07-16T15:51:02;16.30;;;9.13;;
70414;SDS011;57837;52.064;113.478;2023-07-16T15:54:06;13.13;;;8.23;;
70414;SDS011;57837;52.064;113.478;2023-07-16T15:57:10;21.15;;;10.82;;
70414;SDS011;57837;52.064;113.478;2023-07-16T16:00:14;18.30;;;10.63;;
70414;SDS011;57837;52.064;113.478;2023-07-16T16:03:22;20.13;;;11.13;;
70414;SDS011;57837;52.064;113.478;2023-07-16T16:06:26;17.70;;;10.43;;
70414;SDS011;57837;52.064;113.478;2023-07-16T16:09:30;21.10;;;10.77;;
70414;SDS011;57837;52.064;113.478;2023-07-16T16:12:33;15.90;;;10.60;;
70414;SDS011;57837;52.064;113.478;2023-07-16T16:15:36;17.07;;;10.30;;
70414;SDS011;57837;52.064;113.478;2023-07-16T16:18:40;23.10;;;11.83;;
70414;SDS011;57837;52.064;113.478;2023-07-16T16:21:44;18.77;;;10.38;;
70414;SDS011;57837;52.064;113.478;2023-07-16T16:24:48;19.23;;;11.52;;
70414;SDS011;57837;52.064;113.478;2023-07-16T16:27:52;17.65;;;11.00;;
70414;SDS011;57837;52.064;113.478;2023-07-16T16:30:56;18.13;;;10.87;;
70414;SDS011;57837;52.064;113.478;2023-07-16T16:33:59;19.23;;;10.97;;
70414;SDS011;57837;52.064;113.478;2023-07-16T16:37:03;18.00;;;10.93;;
70414;SDS011;57837;52.064;113.478;2023-07-16T16:40:07;17.98;;;10.30;;
70414;SDS011;57837;52.064;113.478;2023-07-16T16:43:12;17.25;;;9.00;;
70414;SDS011;57837;52.064;113.478;2023-07-16T16:46:15;17.90;;;9.17;;
70414;SDS011;57837;52.064;113.478;2023-07-16T16:49:19;16.00;;;9.23;;
70414;SDS011;57837;52.064;113.478;2023-07-16T16:52:22;17.17;;;9.90;;
70414;SDS011;57837;52.064;113.478;2023-07-16T16:55:25;16.58;;;10.13;;
70414;SDS011;57837;52.064;113.478;2023-07-16T16:58:29;17.85;;;9.13;;
70414;SDS011;57837;52.064;113.478;2023-07-16T17:01:33;14.77;;;9.27;;
70414;SDS011;57837;52.064;113.478;2023-07-16T17:04:36;13.23;;;9.10;;
70414;SDS011;57837;52.064;113.478;2023-07-16T17:07:41;21.08;;;9.50;;
70414;SDS011;57837;52.064;113.478;2023-07-16T17:10:45;17.55;;;9.98;;
70414;SDS011;57837;52.064;113.478;2023-07-16T17:13:48;15.73;;;9.88;;
70414;SDS011;57837;52.064;113.478;2023-07-16T17:16:53;13.20;;;9.30;;
70414;SDS011;57837;52.064;113.478;2023-07-16T17:19:57;14.63;;;9.67;;
70414;SDS011;57837;52.064;113.478;2023-07-16T17:23:01;16.90;;;10.27;;
70414;SDS011;57837;52.064;113.478;2023-07-16T17:26:05;16.27;;;9.82;;
70414;SDS011;57837;52.064;113.478;2023-07-16T17:29:08;15.00;;;9.18;;
70414;SDS011;57837;52.064;113.478;2023-07-16T17:32:12;16.93;;;9.83;;
70414;SDS011;57837;52.064;113.478;2023-07-16T17:35:16;13.13;;;9.00;;
70414;SDS011;57837;52.064;113.478;2023-07-16T17:38:20;16.55;;;9.95;;
70414;SDS011;57837;52.064;113.478;2023-07-16T17:41:24;15.82;;;9.55;;
70414;SDS011;57837;52.064;113.478;2023-07-16T17:44:28;15.13;;;9.05;;
70414;SDS011;57837;52.064;113.478;2023-07-16T17:47:33;15.60;;;9.47;;
70414;SDS011;57837;52.064;113.478;2023-07-16T17:50:37;14.30;;;9.27;;
70414;SDS011;57837;52.064;113.478;2023-07-16T17:53:40;11.73;;;9.00;;